logo
Search for airport 
image banner adimage banner adimage banner ad
image banner ad

NWWB - Bourail Poe

Located in , New Caledonia

ICAO - NWWB, IATA -

Data provided by Airmate  

General information

Coordinates: S21°36'35" E165°23'52"
Elevation is 20 feet MSL.
Magnetic variation is 12.11° East
View others Airports in (unassigned)

Operational data

Special qualification required
Current time UTC:
Current local time:
Weather at : - ( 0 km )
METAR: CYMT 202238Z AUTO 25008KT 9SM -RA FEW010 SCT015 BKN031 OVC036 01/00 A2962 RMK SLP048
View NOTAMs / SUP AIP / TFR affecting this airport [VIEW]
Communications frequencies: [VIEW]

Runways:

RWY identifierQFULength (ft)Width (ft)SurfaceLDA (ft)
09107°262559ASPH2625
27287°262559ASPH2625

Airport contact information

Address: New Caledonia

Satellite view of NWWB